createdAt,value
2022-10-26T00:01:35.601Z,11.15
2022-10-26T00:04:04.021Z,11.18
2022-10-26T00:06:32.422Z,11.18
2022-10-26T00:09:01.744Z,11.19
2022-10-26T00:11:31.544Z,11.25
2022-10-26T00:13:59.609Z,11.26
2022-10-26T00:16:31.161Z,11.26
2022-10-26T00:18:59.545Z,11.25
2022-10-26T00:21:28.068Z,11.25
2022-10-26T00:23:56.772Z,11.29
2022-10-26T00:26:25.568Z,11.35
2022-10-26T00:28:58.732Z,11.30
2022-10-26T00:31:28.367Z,11.27
2022-10-26T00:33:57.734Z,11.29
2022-10-26T00:36:26.862Z,11.35
2022-10-26T00:38:59.512Z,11.32
2022-10-26T00:41:30.825Z,11.30
2022-10-26T00:44:02.305Z,11.35
2022-10-26T00:46:36.607Z,11.34
2022-10-26T00:49:12.105Z,11.31
2022-10-26T00:51:45.384Z,11.32
2022-10-26T00:54:19.014Z,11.28
2022-10-26T00:56:50.708Z,11.26
2022-10-26T00:59:23.292Z,11.24
2022-10-26T01:01:53.236Z,11.21
2022-10-26T01:04:22.158Z,11.18
2022-10-26T01:06:51.764Z,11.18
2022-10-26T01:09:21.522Z,11.16
2022-10-26T01:11:50.739Z,11.13
2022-10-26T01:14:21.473Z,11.15
2022-10-26T01:16:59.764Z,11.24
2022-10-26T01:20:03.891Z,11.25
2022-10-26T01:22:41.067Z,11.24
2022-10-26T01:25:29.179Z,11.22
2022-10-26T01:27:59.232Z,11.22
2022-10-26T01:30:37.448Z,11.21
2022-10-26T01:33:24.006Z,11.19
2022-10-26T01:36:02.145Z,11.19
2022-10-26T01:38:36.183Z,11.22
2022-10-26T01:41:12.439Z,11.23
2022-10-26T01:43:46.538Z,11.23
2022-10-26T01:48:51.895Z,11.21
2022-10-26T01:51:21.505Z,11.23
2022-10-26T01:53:49.833Z,11.24
2022-10-26T01:56:22.793Z,11.23
2022-10-26T01:59:05.029Z,11.26
2022-10-26T02:01:46.974Z,11.28
2022-10-26T02:04:31.950Z,11.30
2022-10-26T02:07:04.598Z,11.29
2022-10-26T02:09:42.382Z,11.30
2022-10-26T02:12:23.575Z,11.31
2022-10-26T02:15:01.168Z,11.32
2022-10-26T02:17:39.464Z,11.36
2022-10-26T02:20:15.974Z,11.36
2022-10-26T02:22:49.367Z,11.36
2022-10-26T02:25:21.671Z,11.33
2022-10-26T02:27:55.528Z,11.29
2022-10-26T02:30:24.126Z,11.28
2022-10-26T02:32:57.131Z,11.28
2022-10-26T02:35:31.104Z,11.33
2022-10-26T02:38:05.086Z,11.30
2022-10-26T02:40:34.499Z,11.33
2022-10-26T02:43:08.538Z,11.22
2022-10-26T02:45:42.655Z,11.31
2022-10-26T02:48:12.275Z,11.29
2022-10-26T02:50:46.481Z,11.28
2022-10-26T02:53:24.533Z,11.27
2022-10-26T02:55:53.480Z,11.26
2022-10-26T02:58:27.537Z,11.22
2022-10-26T03:00:56.482Z,11.19
2022-10-26T03:03:26.843Z,11.18
2022-10-26T03:05:55.170Z,11.18
2022-10-26T03:08:25.820Z,11.18
2022-10-26T03:10:54.676Z,11.21
2022-10-26T03:13:23.302Z,11.24
2022-10-26T03:15:51.754Z,11.29
2022-10-26T03:18:20.556Z,11.33
2022-10-26T03:20:50.299Z,11.24
2022-10-26T03:23:18.261Z,11.21
2022-10-26T03:25:46.655Z,11.19
2022-10-26T03:28:15.425Z,11.18
2022-10-26T03:30:43.945Z,11.15
2022-10-26T03:33:12.167Z,11.13
2022-10-26T03:35:40.324Z,11.13
2022-10-26T03:38:15.162Z,11.10
2022-10-26T03:40:44.322Z,11.10
2022-10-26T03:43:12.563Z,11.11
2022-10-26T03:45:40.846Z,11.13
2022-10-26T03:48:09.086Z,11.13
2022-10-26T03:50:37.552Z,11.11
2022-10-26T03:53:06.020Z,11.10
2022-10-26T03:55:35.534Z,11.10
2022-10-26T03:58:05.579Z,11.11
2022-10-26T04:00:33.947Z,11.09
2022-10-26T04:03:02.312Z,11.09
2022-10-26T04:05:30.792Z,11.04
2022-10-26T04:08:04.012Z,11.01
2022-10-26T04:10:33.296Z,11.01
2022-10-26T04:13:03.037Z,11.00
2022-10-26T04:15:32.213Z,10.99
2022-10-26T04:18:02.209Z,11.03
2022-10-26T04:20:32.034Z,11.05
2022-10-26T04:23:02.206Z,11.05
2022-10-26T04:25:32.987Z,11.02
2022-10-26T04:28:04.935Z,11.00
2022-10-26T04:30:34.436Z,10.96
2022-10-26T04:33:03.566Z,10.94
2022-10-26T04:35:33.799Z,10.89
2022-10-26T04:38:04.361Z,10.81
2022-10-26T04:40:36.245Z,10.76
2022-10-26T04:43:06.452Z,10.68
2022-10-26T04:45:35.738Z,10.65
2022-10-26T04:48:06.767Z,10.63
2022-10-26T04:50:38.718Z,10.65
2022-10-26T04:53:08.708Z,10.74
2022-10-26T04:55:38.923Z,10.84
2022-10-26T04:58:08.723Z,10.90
2022-10-26T05:00:37.194Z,10.95
2022-10-26T05:03:07.541Z,10.96
2022-10-26T05:05:37.628Z,10.96
2022-10-26T05:08:06.874Z,10.94
2022-10-26T05:10:35.862Z,10.92
2022-10-26T05:13:04.430Z,10.86
2022-10-26T05:15:34.077Z,10.80
2022-10-26T05:18:05.460Z,10.75
2022-10-26T05:20:36.254Z,10.72
2022-10-26T05:23:06.311Z,10.71
2022-10-26T05:25:37.893Z,10.72
2022-10-26T05:28:09.720Z,10.74
2022-10-26T05:30:40.375Z,10.74
2022-10-26T05:33:10.764Z,10.73
2022-10-26T05:35:39.614Z,10.71
2022-10-26T05:38:09.686Z,10.72
2022-10-26T05:40:38.291Z,10.76
2022-10-26T05:43:07.295Z,10.77
2022-10-26T05:45:36.931Z,10.81
2022-10-26T05:48:08.603Z,10.84
2022-10-26T05:50:37.307Z,10.90
2022-10-26T05:53:05.884Z,10.91
2022-10-26T05:55:34.908Z,10.92
2022-10-26T05:58:04.069Z,10.95
2022-10-26T06:00:33.906Z,11.01
2022-10-26T06:03:20.374Z,11.04
2022-10-26T06:05:54.225Z,11.07
2022-10-26T06:08:24.924Z,11.07
2022-10-26T06:10:55.153Z,11.13
2022-10-26T06:13:24.251Z,11.17
2022-10-26T06:16:09.522Z,11.16
2022-10-26T06:18:49.177Z,11.16
2022-10-26T06:21:25.830Z,11.21
2022-10-26T06:23:59.864Z,11.22
2022-10-26T06:26:39.217Z,11.27
2022-10-26T06:29:21.373Z,11.27
2022-10-26T06:31:50.064Z,11.33
2022-10-26T06:34:26.540Z,11.37
2022-10-26T06:36:57.547Z,11.49
2022-10-26T06:39:29.821Z,11.48
2022-10-26T06:41:59.087Z,11.55
2022-10-26T06:44:27.994Z,11.60
2022-10-26T06:47:05.323Z,11.66
2022-10-26T06:49:39.039Z,11.69
2022-10-26T06:52:14.594Z,11.74
2022-10-26T06:54:50.516Z,11.81
2022-10-26T06:57:20.357Z,11.90
2022-10-26T06:59:51.127Z,12.02
2022-10-26T07:02:20.587Z,12.15
2022-10-26T07:04:50.621Z,12.25
2022-10-26T07:07:19.454Z,12.33
2022-10-26T07:09:48.933Z,12.43
2022-10-26T07:12:17.347Z,12.54
2022-10-26T07:14:46.068Z,12.61
2022-10-26T07:17:14.646Z,12.81
2022-10-26T07:19:45.046Z,12.88
2022-10-26T07:22:14.918Z,12.98
2022-10-26T07:24:43.296Z,13.01
2022-10-26T07:27:11.565Z,13.07
2022-10-26T07:29:40.101Z,13.20
2022-10-26T07:32:08.595Z,13.26
2022-10-26T07:34:36.907Z,13.37
2022-10-26T07:37:06.340Z,13.48
2022-10-26T07:39:37.343Z,13.49
2022-10-26T07:42:06.689Z,13.62
2022-10-26T07:44:34.828Z,13.68
2022-10-26T07:47:03.440Z,13.72
2022-10-26T07:49:31.502Z,13.84
2022-10-26T07:52:00.179Z,13.81
2022-10-26T07:54:28.453Z,13.77
2022-10-26T07:56:58.090Z,13.83
2022-10-26T07:59:26.431Z,13.88
2022-10-26T08:01:55.068Z,13.88
2022-10-26T08:04:24.045Z,13.98
2022-10-26T08:06:54.750Z,14.03
2022-10-26T08:09:23.028Z,14.02
2022-10-26T08:11:52.448Z,14.05
2022-10-26T08:14:22.385Z,14.17
2022-10-26T08:16:52.801Z,14.25
2022-10-26T08:19:21.186Z,14.41
2022-10-26T08:21:49.627Z,14.40
2022-10-26T08:24:17.933Z,14.57
2022-10-26T08:26:47.210Z,14.53
2022-10-26T08:29:15.628Z,14.50
2022-10-26T08:31:45.588Z,14.52
2022-10-26T08:34:14.103Z,14.63
2022-10-26T08:36:42.401Z,14.81
2022-10-26T08:39:11.155Z,15.02
2022-10-26T08:41:43.762Z,15.27
2022-10-26T08:44:25.923Z,15.41
2022-10-26T08:47:00.633Z,15.40
2022-10-26T08:49:33.725Z,15.54
2022-10-26T08:52:03.741Z,15.75
2022-10-26T08:54:39.837Z,15.98
2022-10-26T08:57:17.662Z,16.17
2022-10-26T08:59:52.395Z,16.06
2022-10-26T09:02:24.034Z,16.17
2022-10-26T09:04:54.248Z,16.38
2022-10-26T09:07:43.966Z,16.51
2022-10-26T09:10:25.649Z,16.50
2022-10-26T09:13:01.693Z,16.37
2022-10-26T09:15:38.305Z,16.23
2022-10-26T09:18:20.708Z,16.04
2022-10-26T09:21:00.902Z,15.91
2022-10-26T09:23:49.291Z,16.01
2022-10-26T09:26:31.375Z,15.96
2022-10-26T09:29:06.061Z,16.00
2022-10-26T09:31:45.512Z,15.99
2022-10-26T09:34:23.490Z,15.94
2022-10-26T09:36:55.165Z,16.12
2022-10-26T09:39:32.723Z,16.38
2022-10-26T09:42:12.143Z,16.47
2022-10-26T09:44:50.610Z,16.60
2022-10-26T09:47:32.568Z,16.73
2022-10-26T09:50:15.715Z,16.72
2022-10-26T09:52:44.625Z,16.63
2022-10-26T09:55:13.560Z,16.59
2022-10-26T09:57:44.208Z,16.56
2022-10-26T10:00:17.417Z,16.45
2022-10-26T10:02:49.040Z,16.35
2022-10-26T10:08:21.835Z,16.75
2022-10-26T10:10:58.660Z,17.01
2022-10-26T10:13:28.757Z,17.11
2022-10-26T10:16:07.361Z,17.09
2022-10-26T10:18:37.184Z,17.11
2022-10-26T10:21:07.460Z,17.18
2022-10-26T10:23:37.459Z,17.10
2022-10-26T10:26:08.578Z,17.04
2022-10-26T10:28:37.550Z,17.16
2022-10-26T10:31:22.035Z,17.11
2022-10-26T10:33:50.725Z,17.13
2022-10-26T10:36:23.307Z,17.48
2022-10-26T10:38:53.208Z,17.68
2022-10-26T10:41:27.857Z,17.98
2022-10-26T10:44:01.461Z,18.35
2022-10-26T10:46:30.150Z,18.57
2022-10-26T10:49:08.960Z,18.60
2022-10-26T10:51:41.288Z,18.72
2022-10-26T10:54:23.430Z,18.87
2022-10-26T10:56:54.434Z,19.08
2022-10-26T10:59:39.048Z,19.25
2022-10-26T11:02:43.849Z,19.27
2022-10-26T11:05:26.401Z,19.33
2022-10-26T11:08:12.183Z,19.46
2022-10-26T11:10:46.135Z,19.34
2022-10-26T11:13:20.299Z,19.21
2022-10-26T11:15:52.827Z,19.09
2022-10-26T11:18:26.293Z,19.09
2022-10-26T11:21:00.171Z,18.95
2022-10-26T11:23:37.050Z,18.96
2022-10-26T11:26:11.227Z,18.99
2022-10-26T11:28:46.641Z,19.07
2022-10-26T11:31:21.507Z,19.03
2022-10-26T11:34:11.912Z,19.19
2022-10-26T11:36:44.379Z,19.19
2022-10-26T11:39:23.462Z,19.27
2022-10-26T11:41:58.117Z,19.38
2022-10-26T11:44:31.825Z,19.44
2022-10-26T11:47:03.846Z,19.44
2022-10-26T11:49:39.547Z,19.41
2022-10-26T11:52:17.726Z,19.47
2022-10-26T11:54:52.328Z,19.66
2022-10-26T11:57:23.267Z,19.63
2022-10-26T11:59:55.235Z,19.65
2022-10-26T12:02:26.563Z,19.69
2022-10-26T12:05:01.700Z,19.87
2022-10-26T12:07:33.151Z,19.62
2022-10-26T12:10:04.520Z,19.71
2022-10-26T12:12:40.166Z,19.80
2022-10-26T12:15:20.537Z,19.66
2022-10-26T12:17:54.531Z,19.57
2022-10-26T12:20:53.558Z,19.68
2022-10-26T12:23:40.632Z,19.84
2022-10-26T12:26:42.311Z,20.07
2022-10-26T12:29:36.586Z,19.96
2022-10-26T12:32:26.931Z,20.06
2022-10-26T12:35:01.396Z,20.02
2022-10-26T12:37:37.005Z,20.41
2022-10-26T12:40:42.152Z,20.55
2022-10-26T12:43:37.120Z,20.66
2022-10-26T12:46:42.841Z,20.49
2022-10-26T12:49:57.216Z,20.63
2022-10-26T12:52:33.787Z,20.55
2022-10-26T12:55:29.109Z,20.76
2022-10-26T12:58:21.241Z,21.34
2022-10-26T13:01:12.573Z,21.20
2022-10-26T13:03:52.153Z,21.20
2022-10-26T13:06:41.448Z,21.32
2022-10-26T13:09:19.881Z,20.90
2022-10-26T13:11:53.348Z,20.65
2022-10-26T13:14:24.381Z,20.74
2022-10-26T13:16:53.291Z,20.89
2022-10-26T13:19:27.617Z,20.59
2022-10-26T13:21:59.889Z,20.43
2022-10-26T13:24:32.600Z,20.27
2022-10-26T13:27:25.578Z,20.40
2022-10-26T13:30:20.626Z,20.15
2022-10-26T13:32:53.469Z,19.99
2022-10-26T13:35:25.044Z,19.85
2022-10-26T13:37:56.227Z,19.90
2022-10-26T13:40:28.700Z,19.85
2022-10-26T13:42:59.296Z,19.73
2022-10-26T13:45:29.790Z,19.58
2022-10-26T13:48:06.334Z,19.66
2022-10-26T13:50:41.750Z,19.55
2022-10-26T13:53:21.293Z,19.37
2022-10-26T13:55:52.271Z,19.25
2022-10-26T13:58:26.575Z,19.33
2022-10-26T14:01:02.683Z,19.44
2022-10-26T14:03:31.005Z,19.27
2022-10-26T14:05:59.766Z,19.36
2022-10-26T14:08:28.304Z,19.31
2022-10-26T14:10:59.974Z,19.27
2022-10-26T14:13:31.661Z,19.25
2022-10-26T14:16:00.425Z,19.20
2022-10-26T14:18:31.350Z,19.15
2022-10-26T14:21:03.573Z,19.22
2022-10-26T14:23:35.364Z,19.33
2022-10-26T14:26:06.130Z,19.26
2022-10-26T14:28:44.878Z,19.19
2022-10-26T14:31:16.716Z,19.26
2022-10-26T14:33:48.264Z,19.21
2022-10-26T14:36:18.134Z,19.16
2022-10-26T14:38:49.318Z,19.13
2022-10-26T14:41:20.558Z,19.17
2022-10-26T14:43:49.458Z,19.10
2022-10-26T14:46:20.643Z,19.07
2022-10-26T14:48:54.606Z,18.94
2022-10-26T14:51:27.734Z,18.99
2022-10-26T14:53:58.460Z,18.97
2022-10-26T14:56:40.230Z,18.98
2022-10-26T14:59:12.883Z,19.00
2022-10-26T15:01:53.442Z,19.06
2022-10-26T15:04:31.501Z,19.14
2022-10-26T15:07:11.769Z,19.06
2022-10-26T15:09:43.474Z,19.02
2022-10-26T15:12:30.945Z,18.95
2022-10-26T15:15:08.240Z,18.94
2022-10-26T15:17:41.246Z,18.89
2022-10-26T15:20:17.187Z,18.82
2022-10-26T15:22:50.946Z,18.75
2022-10-26T15:25:23.481Z,18.69
2022-10-26T15:27:53.675Z,18.59
2022-10-26T15:30:25.902Z,18.56
2022-10-26T15:32:55.687Z,18.48
2022-10-26T15:35:29.658Z,18.34
2022-10-26T15:38:00.640Z,18.33
2022-10-26T15:40:30.582Z,18.27
2022-10-26T15:43:02.313Z,18.17
2022-10-26T15:45:35.032Z,18.10
2022-10-26T15:48:19.724Z,17.93
2022-10-26T15:50:48.093Z,17.85
2022-10-26T15:53:21.879Z,17.71
2022-10-26T15:55:52.629Z,17.65
2022-10-26T15:58:22.918Z,17.55
2022-10-26T16:00:51.762Z,17.44
2022-10-26T16:03:23.103Z,17.33
2022-10-26T16:05:56.598Z,17.23
2022-10-26T16:08:27.446Z,17.13
2022-10-26T16:10:56.486Z,16.98
2022-10-26T16:13:27.074Z,16.81
2022-10-26T16:15:55.737Z,16.70
2022-10-26T16:18:23.992Z,16.65
2022-10-26T16:20:52.530Z,16.57
2022-10-26T16:23:21.321Z,16.47
2022-10-26T16:25:49.762Z,16.39
2022-10-26T16:28:18.840Z,16.31
2022-10-26T16:30:48.699Z,16.22
2022-10-26T16:33:16.857Z,16.14
2022-10-26T16:35:45.295Z,16.06
2022-10-26T16:38:13.688Z,16.01
2022-10-26T16:40:44.759Z,15.94
2022-10-26T16:43:12.975Z,15.91
2022-10-26T16:45:42.655Z,15.87
2022-10-26T16:48:15.414Z,15.85
2022-10-26T16:50:44.305Z,15.81
2022-10-26T16:53:12.747Z,15.81
2022-10-26T16:58:14.977Z,15.68
2022-10-26T17:00:43.352Z,15.70
2022-10-26T17:03:13.161Z,15.68
2022-10-26T17:05:42.220Z,15.62
2022-10-26T17:08:10.256Z,15.58
2022-10-26T17:10:38.411Z,15.54
2022-10-26T17:13:06.963Z,15.48
2022-10-26T17:15:36.278Z,15.42
2022-10-26T17:18:04.772Z,15.36
2022-10-26T17:20:36.272Z,15.30
2022-10-26T17:23:05.112Z,15.21
2022-10-26T17:25:35.597Z,15.12
2022-10-26T17:28:04.195Z,15.07
2022-10-26T17:30:34.297Z,14.97
2022-10-26T17:33:03.552Z,14.91
2022-10-26T17:35:33.561Z,14.87
2022-10-26T17:38:03.512Z,14.80
2022-10-26T17:40:34.648Z,14.75
2022-10-26T17:43:03.754Z,14.68
2022-10-26T17:45:32.555Z,14.63
2022-10-26T17:48:00.982Z,14.57
2022-10-26T17:50:29.149Z,14.53
2022-10-26T17:52:58.827Z,14.48
2022-10-26T17:55:29.085Z,14.43
2022-10-26T17:57:58.162Z,14.40
2022-10-26T18:00:26.983Z,14.43
2022-10-26T18:02:55.578Z,14.46
2022-10-26T18:05:24.088Z,14.45
2022-10-26T18:07:54.453Z,14.47
2022-10-26T18:10:38.502Z,14.46
2022-10-26T18:13:08.647Z,14.45
2022-10-26T18:15:37.514Z,14.41
2022-10-26T18:18:06.419Z,14.43
2022-10-26T18:20:34.672Z,14.41
2022-10-26T18:23:03.304Z,14.41
2022-10-26T18:25:33.727Z,14.42
2022-10-26T18:28:02.393Z,14.41
2022-10-26T18:30:35.085Z,14.40
2022-10-26T18:33:03.537Z,14.34
2022-10-26T18:35:33.068Z,14.30
2022-10-26T18:38:01.351Z,14.22
2022-10-26T18:40:29.882Z,14.17
2022-10-26T18:42:58.351Z,14.15
2022-10-26T18:45:26.794Z,14.10
2022-10-26T18:47:56.928Z,14.06
2022-10-26T18:50:25.302Z,14.05
2022-10-26T18:52:54.746Z,14.04
2022-10-26T18:55:23.531Z,14.00
2022-10-26T18:57:53.685Z,13.96
2022-10-26T19:00:23.845Z,13.89
2022-10-26T19:02:52.741Z,13.81
2022-10-26T19:05:23.117Z,13.77
2022-10-26T19:07:51.646Z,13.69
2022-10-26T19:10:20.779Z,13.62
2022-10-26T19:12:49.553Z,13.58
2022-10-26T19:15:18.203Z,13.50
2022-10-26T19:17:46.788Z,13.42
2022-10-26T19:20:15.940Z,13.33
2022-10-26T19:22:45.625Z,13.28
2022-10-26T19:25:13.939Z,13.24
2022-10-26T19:27:42.691Z,13.19
2022-10-26T19:30:12.056Z,13.13
2022-10-26T19:32:40.365Z,13.09
2022-10-26T19:35:09.719Z,13.04
2022-10-26T19:37:38.237Z,12.97
2022-10-26T19:40:09.821Z,13.02
2022-10-26T19:42:38.239Z,13.03
2022-10-26T19:45:07.776Z,13.01
2022-10-26T19:47:36.104Z,13.05
2022-10-26T19:50:07.498Z,13.06
2022-10-26T19:52:36.580Z,13.07
2022-10-26T19:55:05.679Z,13.10
2022-10-26T19:57:35.929Z,13.01
2022-10-26T20:00:06.708Z,13.07
2022-10-26T20:02:40.928Z,13.20
2022-10-26T20:05:09.769Z,13.14
2022-10-26T20:07:38.073Z,13.22
2022-10-26T20:10:07.957Z,13.24
2022-10-26T20:12:37.401Z,13.10
2022-10-26T20:15:07.467Z,12.97
2022-10-26T20:17:36.538Z,12.86
2022-10-26T20:20:05.987Z,12.83
2022-10-26T20:22:34.427Z,12.85
2022-10-26T20:25:02.874Z,12.74
2022-10-26T20:27:31.310Z,12.76
2022-10-26T20:30:01.178Z,12.75
2022-10-26T20:32:29.811Z,12.72
2022-10-26T20:34:58.598Z,12.61
2022-10-26T20:37:27.485Z,12.66
2022-10-26T20:39:56.736Z,12.57
2022-10-26T20:42:27.745Z,12.48
2022-10-26T20:45:08.514Z,12.68
2022-10-26T20:47:38.236Z,12.61
2022-10-26T20:50:06.927Z,12.56
2022-10-26T20:52:40.145Z,12.56
2022-10-26T20:55:16.163Z,12.44
2022-10-26T20:57:55.917Z,12.35
2022-10-26T21:00:26.211Z,12.25
2022-10-26T21:02:54.928Z,12.23
2022-10-26T21:05:23.401Z,12.16
2022-10-26T21:07:51.774Z,12.10
2022-10-26T21:10:20.915Z,12.13
2022-10-26T21:12:49.443Z,12.12
2022-10-26T21:15:18.243Z,12.17
2022-10-26T21:17:47.999Z,12.15
2022-10-26T21:20:17.182Z,12.05
2022-10-26T21:22:46.106Z,11.94
2022-10-26T21:25:15.132Z,11.84
2022-10-26T21:27:43.366Z,11.87
2022-10-26T21:30:13.219Z,11.99
2022-10-26T21:32:41.692Z,12.12
2022-10-26T21:35:12.794Z,12.11
2022-10-26T21:37:41.306Z,12.33
2022-10-26T21:40:11.152Z,12.37
2022-10-26T21:42:39.662Z,12.27
2022-10-26T21:45:09.337Z,12.31
2022-10-26T21:47:37.859Z,12.28
2022-10-26T21:50:07.174Z,12.25
2022-10-26T21:52:37.404Z,12.19
2022-10-26T21:55:06.426Z,12.10
2022-10-26T21:57:34.948Z,12.01
2022-10-26T22:00:03.545Z,11.92
2022-10-26T22:02:41.779Z,11.87
2022-10-26T22:05:10.271Z,11.87
2022-10-26T22:07:39.936Z,11.82
2022-10-26T22:10:10.542Z,11.80
2022-10-26T22:12:39.713Z,11.77
2022-10-26T22:15:10.504Z,11.78
2022-10-26T22:17:40.788Z,11.74
2022-10-26T22:20:12.340Z,11.77
2022-10-26T22:22:42.360Z,11.78
2022-10-26T22:25:11.068Z,11.74
2022-10-26T22:27:39.499Z,11.65
2022-10-26T22:30:09.191Z,11.55
2022-10-26T22:32:37.365Z,11.44
2022-10-26T22:35:40.174Z,11.43
2022-10-26T22:37:56.770Z,11.45
2022-10-26T22:40:25.290Z,11.45
2022-10-26T22:42:54.316Z,11.54
2022-10-26T22:45:22.495Z,11.50
2022-10-26T22:47:50.620Z,11.61
2022-10-26T22:50:19.364Z,11.57
2022-10-26T22:52:49.280Z,11.53
2022-10-26T22:55:19.470Z,11.49
2022-10-26T22:57:48.044Z,11.44
2022-10-26T23:00:17.719Z,11.45
2022-10-26T23:02:45.999Z,11.40
2022-10-26T23:05:14.749Z,11.31
2022-10-26T23:07:43.060Z,11.25
2022-10-26T23:10:11.624Z,11.23
2022-10-26T23:12:41.611Z,11.13
2022-10-26T23:15:10.474Z,11.01
2022-10-26T23:17:38.639Z,10.92
2022-10-26T23:20:08.302Z,10.91
2022-10-26T23:22:36.580Z,10.93
2022-10-26T23:25:07.203Z,10.97
2022-10-26T23:27:35.557Z,10.95
2022-10-26T23:30:09.074Z,10.92
2022-10-26T23:32:37.428Z,10.90
2022-10-26T23:35:06.798Z,10.86
2022-10-26T23:37:35.332Z,10.81
2022-10-26T23:40:03.850Z,10.80
2022-10-26T23:42:32.088Z,10.88
2022-10-26T23:45:00.509Z,11.01
2022-10-26T23:47:30.219Z,10.94
2022-10-26T23:49:58.608Z,10.95
2022-10-26T23:52:26.760Z,11.03
2022-10-26T23:54:56.702Z,11.02
2022-10-26T23:57:25.586Z,11.02
2022-10-26T23:59:54.459Z,10.95
